createdAt,value
2023-08-18T00:01:40.451Z,99062.67
2023-08-18T00:04:57.339Z,99057.69
2023-08-18T00:08:14.470Z,99054.41
2023-08-18T00:11:32.446Z,99055.12
2023-08-18T00:14:49.065Z,99066.95
2023-08-18T00:18:05.648Z,99064.07
2023-08-18T00:21:22.341Z,99060.91
2023-08-18T00:24:38.917Z,99055.28
2023-08-18T00:27:57.099Z,99051.53
2023-08-18T00:31:13.739Z,99051.19
2023-08-18T00:34:30.899Z,99051.31
2023-08-18T00:37:48.071Z,99042.17
2023-08-18T00:41:04.872Z,99041.38
2023-08-18T00:44:21.830Z,99047.23
2023-08-18T00:47:42.180Z,99044.44
2023-08-18T00:50:59.600Z,99038.24
2023-08-18T00:54:16.874Z,99031.48
2023-08-18T00:57:33.782Z,99042.50
2023-08-18T01:00:51.074Z,99038.76
2023-08-18T01:04:09.405Z,99045.05
2023-08-18T01:07:28.237Z,99044.95
2023-08-18T01:10:52.468Z,99044.39
2023-08-18T01:14:18.438Z,99046.00
2023-08-18T01:17:40.773Z,99037.92
2023-08-18T01:21:01.516Z,99039.00
2023-08-18T01:24:18.657Z,99040.40
2023-08-18T01:27:35.774Z,99039.81
2023-08-18T01:30:57.730Z,99037.27
2023-08-18T01:34:19.701Z,99041.91
2023-08-18T01:37:37.935Z,99036.31
2023-08-18T01:40:57.787Z,99039.81
2023-08-18T01:44:18.565Z,99041.70
2023-08-18T01:47:35.954Z,99034.18
2023-08-18T01:50:53.186Z,99026.94
2023-08-18T01:54:15.844Z,99028.33
2023-08-18T01:57:32.425Z,99026.88
2023-08-18T02:00:49.122Z,99030.53
2023-08-18T02:04:05.810Z,99025.64
2023-08-18T02:07:22.555Z,99025.03
2023-08-18T02:10:39.131Z,99029.23
2023-08-18T02:13:55.832Z,99025.55
2023-08-18T02:17:12.657Z,99034.42
2023-08-18T02:20:30.800Z,99035.97
2023-08-18T02:23:47.408Z,99025.91
2023-08-18T02:27:04.043Z,99022.77
2023-08-18T02:30:21.622Z,99023.02
2023-08-18T02:33:39.340Z,99027.20
2023-08-18T02:36:55.924Z,99015.88
2023-08-18T02:40:16.490Z,99016.09
2023-08-18T02:43:32.955Z,99014.81
2023-08-18T02:46:49.510Z,99010.83
2023-08-18T02:50:06.108Z,99002.55
2023-08-18T02:53:22.989Z,99010.61
2023-08-18T02:56:39.646Z,99012.95
2023-08-18T02:59:56.721Z,99014.81
2023-08-18T03:03:14.253Z,99004.64
2023-08-18T03:06:32.075Z,99007.20
2023-08-18T03:09:48.814Z,99001.60
2023-08-18T03:13:06.059Z,99002.05
2023-08-18T03:16:25.358Z,99000.07
2023-08-18T03:19:42.096Z,99010.13
2023-08-18T03:22:59.110Z,99004.39
2023-08-18T03:26:16.883Z,99010.72
2023-08-18T03:29:34.114Z,99002.51
2023-08-18T03:32:52.368Z,99002.05
2023-08-18T03:36:09.732Z,99002.55
2023-08-18T03:39:26.409Z,99000.91
2023-08-18T03:42:42.920Z,99007.44
2023-08-18T03:46:04.743Z,99008.73
2023-08-18T03:49:22.658Z,99007.09
2023-08-18T03:52:41.946Z,99014.46
2023-08-18T03:56:02.162Z,99010.38
2023-08-18T03:59:18.702Z,99016.10
2023-08-18T04:02:35.511Z,99013.66
2023-08-18T04:05:57.017Z,99015.16
2023-08-18T04:09:20.548Z,99007.13
2023-08-18T04:12:38.027Z,99015.99
2023-08-18T04:15:54.945Z,99007.47
2023-08-18T04:19:12.090Z,99014.35
2023-08-18T04:22:29.042Z,99017.28
2023-08-18T04:25:46.115Z,99019.06
2023-08-18T04:29:03.390Z,99013.79
2023-08-18T04:32:20.056Z,99017.63
2023-08-18T04:35:36.629Z,99015.41
2023-08-18T04:38:56.248Z,99021.48
2023-08-18T04:42:14.860Z,99013.76
2023-08-18T04:45:31.570Z,99016.80
2023-08-18T04:48:48.635Z,99025.56
2023-08-18T04:52:06.026Z,99029.55
2023-08-18T04:55:22.793Z,99024.95
2023-08-18T04:58:39.372Z,99033.38
2023-08-18T05:01:56.888Z,99033.47
2023-08-18T05:05:18.530Z,99034.96
2023-08-18T05:08:36.845Z,99037.06
2023-08-18T05:11:53.556Z,99036.36
2023-08-18T05:15:10.591Z,99034.25
2023-08-18T05:18:28.458Z,99027.91
2023-08-18T05:21:45.644Z,99034.94
2023-08-18T05:25:02.283Z,99037.23
2023-08-18T05:28:18.724Z,99037.91
2023-08-18T05:31:39.252Z,99033.10
2023-08-18T05:34:55.862Z,99040.44
2023-08-18T05:38:13.132Z,99036.06
2023-08-18T05:41:29.784Z,99021.65
2023-08-18T05:44:48.246Z,99025.02
2023-08-18T05:48:07.069Z,99027.80
2023-08-18T05:51:23.904Z,99027.63
2023-08-18T05:54:40.665Z,99031.23
2023-08-18T05:57:58.448Z,99033.28
2023-08-18T06:01:17.049Z,99033.44
2023-08-18T06:04:33.844Z,99035.30
2023-08-18T06:07:50.787Z,99037.52
2023-08-18T06:11:07.545Z,99041.92
2023-08-18T06:14:24.218Z,99047.30
2023-08-18T06:17:41.029Z,99048.86
2023-08-18T06:20:58.837Z,99045.92
2023-08-18T06:24:17.024Z,99043.97
2023-08-18T06:27:33.860Z,99048.21
2023-08-18T06:30:50.306Z,99043.34
2023-08-18T06:34:07.736Z,99049.71
2023-08-18T06:37:24.556Z,99051.48
2023-08-18T06:40:41.326Z,99038.88
2023-08-18T06:44:00.231Z,99034.48
2023-08-18T06:47:17.073Z,99035.91
2023-08-18T06:50:33.639Z,99042.45
2023-08-18T06:53:50.264Z,99045.78
2023-08-18T06:57:07.000Z,99042.89
2023-08-18T07:00:25.441Z,99054.66
2023-08-18T07:03:47.569Z,99061.23
2023-08-18T07:07:04.508Z,99052.32
2023-08-18T07:10:22.526Z,99067.80
2023-08-18T07:13:39.151Z,99061.34
2023-08-18T07:16:56.985Z,99063.66
2023-08-18T07:20:17.687Z,99063.14
2023-08-18T07:23:34.418Z,99066.13
2023-08-18T07:26:50.933Z,99076.06
2023-08-18T07:30:09.125Z,99077.66
2023-08-18T07:33:27.216Z,99071.95
2023-08-18T07:36:43.821Z,99073.84
2023-08-18T07:40:00.557Z,99069.91
2023-08-18T07:43:17.265Z,99072.02
2023-08-18T07:46:34.156Z,99082.34
2023-08-18T07:49:51.242Z,99079.84
2023-08-18T07:53:07.796Z,99096.21
2023-08-18T07:56:24.426Z,99103.72
2023-08-18T07:59:41.164Z,99091.13
2023-08-18T08:02:59.120Z,99103.89
2023-08-18T08:06:13.857Z,99102.77
2023-08-18T08:09:30.621Z,99110.20
2023-08-18T08:12:48.309Z,99101.56
2023-08-18T08:16:05.972Z,99108.77
2023-08-18T08:19:22.818Z,99120.19
2023-08-18T08:22:43.183Z,99121.42
2023-08-18T08:25:57.984Z,99120.67
2023-08-18T08:29:15.250Z,99123.05
2023-08-18T08:32:33.768Z,99120.03
2023-08-18T08:35:50.890Z,99111.41
2023-08-18T08:39:07.786Z,99103.80
2023-08-18T08:42:26.465Z,99106.98
2023-08-18T08:45:44.399Z,99100.24
2023-08-18T08:49:03.847Z,99114.60
2023-08-18T08:52:21.873Z,99103.95
2023-08-18T08:55:42.534Z,99097.66
2023-08-18T08:59:00.178Z,99105.60
2023-08-18T09:02:15.340Z,99101.07
2023-08-18T09:05:36.581Z,99093.88
2023-08-18T09:08:53.609Z,99093.13
2023-08-18T09:12:13.845Z,99099.78
2023-08-18T09:15:32.340Z,99099.27
2023-08-18T09:18:50.131Z,99093.79
2023-08-18T09:22:10.644Z,99099.53
2023-08-18T09:25:29.164Z,99096.36
2023-08-18T09:28:46.533Z,99088.92
2023-08-18T09:32:03.442Z,99083.86
2023-08-18T09:35:26.523Z,99095.23
2023-08-18T09:38:51.497Z,99084.92
2023-08-18T09:42:11.418Z,99081.98
2023-08-18T09:45:32.730Z,99081.19
2023-08-18T09:48:53.314Z,99085.92
2023-08-18T09:52:14.079Z,99088.56
2023-08-18T09:55:36.319Z,99083.23
2023-08-18T09:58:57.384Z,99088.08
2023-08-18T10:02:16.918Z,99082.28
2023-08-18T10:05:35.342Z,99085.69
2023-08-18T10:08:54.171Z,99076.32
2023-08-18T10:12:12.254Z,99085.36
2023-08-18T10:15:30.851Z,99071.17
2023-08-18T10:45:36.403Z,99064.47
2023-08-18T10:48:53.501Z,99062.38
2023-08-18T10:52:14.009Z,99069.02
2023-08-18T10:55:32.240Z,99063.36
2023-08-18T10:58:49.783Z,99060.28
2023-08-18T11:02:07.869Z,99052.20
2023-08-18T11:05:30.347Z,99050.16
2023-08-18T11:08:48.213Z,99055.88
2023-08-18T11:12:06.625Z,99052.13
2023-08-18T11:15:25.654Z,99041.40
2023-08-18T11:18:42.306Z,99034.23
2023-08-18T11:21:59.252Z,99030.63
2023-08-18T11:25:18.920Z,99032.34
2023-08-18T11:28:35.755Z,99032.06
2023-08-18T11:31:54.865Z,99030.67
2023-08-18T11:35:12.459Z,99034.53
2023-08-18T11:38:29.024Z,99035.08
2023-08-18T11:41:51.817Z,99032.86
2023-08-18T11:45:09.452Z,99030.30
2023-08-18T11:48:26.403Z,99026.58
2023-08-18T11:51:44.339Z,99032.48
2023-08-18T11:55:03.637Z,99019.41
2023-08-18T11:58:21.975Z,99010.53
2023-08-18T12:01:44.783Z,99012.52
2023-08-18T12:05:02.915Z,99010.31
2023-08-18T12:08:19.578Z,99005.23
2023-08-18T12:11:37.046Z,98998.45
2023-08-18T12:14:54.340Z,98995.90
2023-08-18T12:18:11.369Z,98994.69
2023-08-18T12:21:28.529Z,98998.14
2023-08-18T12:24:45.697Z,98993.95
2023-08-18T12:28:02.776Z,98995.29
2023-08-18T12:31:22.628Z,99005.39
2023-08-18T12:34:40.078Z,99002.55
2023-08-18T12:37:56.877Z,98994.06
2023-08-18T12:41:14.890Z,99000.84
2023-08-18T12:44:31.618Z,98992.44
2023-08-18T12:47:48.665Z,98982.93
2023-08-18T12:51:05.467Z,98980.59
2023-08-18T12:54:22.071Z,98982.19
2023-08-18T12:57:38.772Z,98972.48
2023-08-18T13:00:55.508Z,98976.27
2023-08-18T13:04:14.696Z,98974.13
2023-08-18T13:07:31.350Z,98973.81
2023-08-18T13:10:48.345Z,98978.91
2023-08-18T13:14:04.967Z,98979.80
2023-08-18T13:17:22.291Z,98980.72
2023-08-18T13:20:39.463Z,98977.58
2023-08-18T13:23:57.689Z,98977.89
2023-08-18T13:27:12.495Z,98975.95
2023-08-18T13:30:30.618Z,98978.75
2023-08-18T13:33:47.396Z,98988.73
2023-08-18T13:37:04.329Z,98986.70
2023-08-18T13:40:21.559Z,98981.34
2023-08-18T13:43:38.270Z,98970.09
2023-08-18T13:46:55.019Z,98962.61
2023-08-18T13:50:13.413Z,98961.81
2023-08-18T13:53:31.950Z,98958.96
2023-08-18T13:56:49.537Z,98957.21
2023-08-18T14:00:06.254Z,98965.98
2023-08-18T14:03:25.945Z,98979.23
2023-08-18T14:06:43.919Z,98993.56
2023-08-18T14:10:01.320Z,98990.53
2023-08-18T14:13:18.753Z,98989.59
2023-08-18T14:16:36.098Z,98994.45
2023-08-18T14:19:52.808Z,98998.36
2023-08-18T14:23:09.629Z,98994.08
2023-08-18T14:26:26.651Z,98997.80
2023-08-18T14:29:43.421Z,98983.41
2023-08-18T14:33:02.209Z,98988.93
2023-08-18T14:36:20.248Z,98976.31
2023-08-18T14:39:37.026Z,98975.84
2023-08-18T14:43:06.973Z,98975.63
2023-08-18T14:46:14.552Z,98977.23
2023-08-18T14:49:38.761Z,98976.17
2023-08-18T14:52:55.557Z,98975.23
2023-08-18T14:56:12.893Z,98979.45
2023-08-18T14:59:31.320Z,98976.84
2023-08-18T15:02:45.852Z,98979.91
2023-08-18T15:06:02.687Z,98975.36
2023-08-18T15:09:20.082Z,98968.84
2023-08-18T15:12:36.758Z,98959.95
2023-08-18T15:15:54.031Z,98953.16
2023-08-18T15:19:11.906Z,98951.58
2023-08-18T15:22:28.417Z,98951.32
2023-08-18T15:25:45.144Z,98972.53
2023-08-18T15:29:01.738Z,98953.28
2023-08-18T15:32:18.712Z,98962.23
2023-08-18T15:35:36.910Z,98958.72
2023-08-18T15:38:53.634Z,98957.63
2023-08-18T15:42:10.598Z,98946.51
2023-08-18T15:45:27.365Z,98953.30
2023-08-18T15:48:44.758Z,98955.48
2023-08-18T15:52:01.326Z,98957.91
2023-08-18T15:55:18.669Z,98958.73
2023-08-18T15:58:35.342Z,98969.31
2023-08-18T16:01:52.199Z,98969.03
2023-08-18T16:05:09.147Z,98978.26
2023-08-18T16:08:26.141Z,98973.05
2023-08-18T16:11:42.720Z,98970.34
2023-08-18T16:15:27.454Z,98974.41
2023-08-18T16:18:20.003Z,98976.84
2023-08-18T16:21:36.686Z,98976.56
2023-08-18T16:24:58.810Z,98975.21
2023-08-18T16:28:16.046Z,98982.27
2023-08-18T16:31:32.593Z,98972.78
2023-08-18T16:34:49.454Z,98974.41
2023-08-18T16:38:05.963Z,98972.50
2023-08-18T16:41:23.444Z,98967.64
2023-08-18T16:44:40.718Z,98963.56
2023-08-18T16:47:57.331Z,98972.50
2023-08-18T16:51:13.937Z,98974.69
2023-08-18T16:54:31.247Z,98973.30
2023-08-18T16:57:47.775Z,98969.51
2023-08-18T17:01:05.001Z,98971.66
2023-08-18T17:04:23.223Z,98976.27
2023-08-18T17:07:39.943Z,98983.04
2023-08-18T17:11:01.276Z,98977.61
2023-08-18T17:14:18.981Z,98986.55
2023-08-18T17:17:36.515Z,98991.69
2023-08-18T17:20:54.235Z,98989.51
2023-08-18T17:24:11.769Z,98978.33
2023-08-18T17:27:27.220Z,98980.70
2023-08-18T17:30:44.685Z,98979.89
2023-08-18T17:34:01.329Z,98986.94
2023-08-18T17:37:18.717Z,98987.14
2023-08-18T17:40:37.763Z,98986.56
2023-08-18T17:43:54.307Z,98989.25
2023-08-18T17:47:10.920Z,98980.83
2023-08-18T17:50:29.081Z,98983.00
2023-08-18T17:53:45.830Z,98995.92
2023-08-18T17:57:03.950Z,98992.66
2023-08-18T18:00:29.666Z,98992.09
2023-08-18T18:03:48.030Z,98990.98
2023-08-18T18:07:06.532Z,98986.89
2023-08-18T18:10:23.674Z,98996.08
2023-08-18T18:13:41.118Z,98999.81
2023-08-18T18:17:00.926Z,99000.02
2023-08-18T18:20:28.378Z,99000.75
2023-08-18T18:23:44.886Z,99015.61
2023-08-18T18:27:01.579Z,99006.13
2023-08-18T18:30:21.320Z,98997.41
2023-08-18T18:33:38.038Z,99001.95
2023-08-18T18:36:54.602Z,98997.61
2023-08-18T18:40:17.979Z,98997.56
2023-08-18T18:43:34.701Z,98988.61
2023-08-18T18:46:51.771Z,98996.68
2023-08-18T18:50:08.384Z,99004.98
2023-08-18T18:53:25.200Z,99001.66
2023-08-18T18:56:41.896Z,98997.30
2023-08-18T18:59:58.480Z,98995.28
2023-08-18T19:03:15.364Z,99001.75
2023-08-18T19:06:32.028Z,98999.53
2023-08-18T19:09:48.719Z,99006.08
2023-08-18T19:13:05.318Z,99008.96
2023-08-18T19:16:23.649Z,99021.72
2023-08-18T19:19:40.458Z,99030.48
2023-08-18T19:22:58.225Z,99032.34
2023-08-18T19:26:14.913Z,99028.50
2023-08-18T19:29:31.647Z,99039.56
2023-08-18T19:32:50.084Z,99043.33
2023-08-18T19:36:19.417Z,99042.27
2023-08-18T19:39:34.859Z,99045.86
2023-08-18T19:42:53.849Z,99051.88
2023-08-18T19:46:11.612Z,99044.60
2023-08-18T19:49:31.952Z,99056.90
2023-08-18T19:52:50.750Z,99054.34
2023-08-18T19:56:07.668Z,99052.70
2023-08-18T19:59:25.406Z,99059.48
2023-08-18T20:02:45.320Z,99064.63
2023-08-18T20:06:04.113Z,99064.82
2023-08-18T20:09:20.606Z,99073.34
2023-08-18T20:12:39.546Z,99069.32
2023-08-18T20:15:58.599Z,99067.90
2023-08-18T20:19:15.513Z,99066.32
2023-08-18T20:22:34.746Z,99062.82
2023-08-18T20:25:51.535Z,99061.38
2023-08-18T20:29:12.632Z,99054.20
2023-08-18T20:32:29.473Z,99055.03
2023-08-18T20:35:46.473Z,99054.72
2023-08-18T20:39:03.059Z,99039.40
2023-08-18T20:42:20.441Z,99043.53
2023-08-18T20:45:37.126Z,99053.34
2023-08-18T20:48:55.743Z,99045.78
2023-08-18T20:52:13.843Z,99037.30
2023-08-18T20:55:30.531Z,99028.59
2023-08-18T20:58:47.085Z,99034.22
2023-08-18T21:02:04.053Z,99026.38
2023-08-18T21:05:20.998Z,99023.42
2023-08-18T21:08:39.026Z,99025.27
2023-08-18T21:11:55.575Z,99033.10
2023-08-18T21:15:13.260Z,99028.26
2023-08-18T21:18:43.828Z,99028.19
2023-08-18T21:22:00.458Z,99025.98
2023-08-18T21:25:25.432Z,99030.40
2023-08-18T21:28:42.675Z,99034.38
2023-08-18T21:31:59.540Z,99021.98
2023-08-18T21:35:19.069Z,99025.89
2023-08-18T21:38:37.014Z,99022.06
2023-08-18T21:41:53.743Z,99027.13
2023-08-18T21:45:11.424Z,99037.62
2023-08-18T21:48:28.211Z,99041.45
2023-08-18T21:51:44.981Z,99049.69
2023-08-18T21:55:01.673Z,99047.50
2023-08-18T21:58:18.352Z,99038.50
2023-08-18T22:01:37.894Z,99041.04
2023-08-18T22:04:56.647Z,99032.62
2023-08-18T22:08:14.395Z,99036.13
2023-08-18T22:11:31.007Z,99033.42
2023-08-18T22:14:47.562Z,99032.62
2023-08-18T22:18:05.288Z,99029.02
2023-08-18T22:21:21.979Z,99031.88
2023-08-18T22:24:40.458Z,99032.38
2023-08-18T22:27:57.118Z,99034.48
2023-08-18T22:31:13.881Z,99026.88
2023-08-18T22:34:31.074Z,99017.40
2023-08-18T22:37:48.583Z,99013.65
2023-08-18T22:41:10.745Z,99018.63
2023-08-18T22:44:27.761Z,99016.98
2023-08-18T22:47:44.574Z,99018.38
2023-08-18T22:51:01.824Z,99024.48
2023-08-18T22:54:18.342Z,99009.84
2023-08-18T22:57:35.095Z,99002.00
2023-08-18T23:00:52.010Z,99006.67
2023-08-18T23:04:08.841Z,99009.98
2023-08-18T23:07:26.241Z,99006.59
2023-08-18T23:10:42.911Z,99008.95
2023-08-18T23:14:00.146Z,99000.28
2023-08-18T23:17:17.208Z,99005.33
2023-08-18T23:20:38.885Z,99010.50
2023-08-18T23:23:55.601Z,99009.83
2023-08-18T23:27:12.522Z,99013.19
2023-08-18T23:30:29.138Z,99007.55
2023-08-18T23:33:47.617Z,99011.05
2023-08-18T23:37:06.737Z,99002.25
2023-08-18T23:40:26.082Z,99004.86
2023-08-18T23:43:44.265Z,99004.52
2023-08-18T23:47:01.869Z,99011.30
2023-08-18T23:50:19.910Z,99006.50
2023-08-18T23:53:36.473Z,99008.23
2023-08-18T23:56:53.167Z,99011.97
